Time;durP1;ratioP1;P1;durP2;ratioP2;P2;SDS_P1;SDS_P2;PMS_P1;PMS_P2;Temp;Humidity;BMP_temperature;BMP_pressure;BME280_temperature;BME280_humidity;BME280_pressure;Samples;Min_cycle;Max_cycle;Signal;HPM_P1;HPM_P2
2021/12/30 00:00:38;;;;;;;5.80;3.17;;;13.10;99.90;;;;;;5087550;28;20144;-62
2021/12/30 00:03:06;;;;;;;6.18;3.17;;;13.10;99.90;;;;;;5097815;28;20558;-61
2021/12/30 00:05:35;;;;;;;4.85;2.60;;;13.10;99.90;;;;;;5091957;28;20043;-61
2021/12/30 00:08:03;;;;;;;7.30;3.97;;;13.00;99.90;;;;;;5081363;28;20032;-61
2021/12/30 00:10:31;;;;;;;15.52;3.88;;;13.00;99.90;;;;;;5066657;28;20425;-60
2021/12/30 00:12:59;;;;;;;6.30;3.53;;;13.00;99.90;;;;;;5085764;28;20580;-60
2021/12/30 00:15:27;;;;;;;11.15;2.90;;;13.00;99.90;;;;;;5071328;28;20044;-61
2021/12/30 00:17:55;;;;;;;9.93;2.83;;;13.00;99.90;;;;;;5090250;28;20044;-61
2021/12/30 00:20:23;;;;;;;9.57;3.13;;;12.90;99.90;;;;;;5094556;28;20047;-61
2021/12/30 00:22:51;;;;;;;4.88;3.17;;;13.00;99.90;;;;;;5090047;28;20044;-61
2021/12/30 00:25:19;;;;;;;8.73;5.07;;;13.00;99.90;;;;;;5076097;28;20067;-61
2021/12/30 00:27:46;;;;;;;6.15;3.35;;;12.90;99.90;;;;;;5056764;28;20048;-61
2021/12/30 00:30:14;;;;;;;7.00;2.90;;;12.90;99.90;;;;;;5082590;28;20063;-60
2021/12/30 00:32:42;;;;;;;6.88;3.33;;;12.90;99.90;;;;;;5054446;28;20048;-60
2021/12/30 00:35:10;;;;;;;6.70;3.75;;;13.00;99.90;;;;;;5115354;28;20105;-62
2021/12/30 00:37:38;;;;;;;5.28;3.30;;;12.90;99.90;;;;;;5083228;28;20059;-61
2021/12/30 00:40:07;;;;;;;8.10;3.22;;;13.00;99.90;;;;;;5093934;28;20494;-64
2021/12/30 00:42:35;;;;;;;5.72;3.30;;;13.00;99.90;;;;;;5096587;28;20122;-61
2021/12/30 00:45:03;;;;;;;6.88;3.60;;;13.00;99.90;;;;;;5090059;28;20101;-62
2021/12/30 00:47:31;;;;;;;6.47;3.28;;;13.00;99.90;;;;;;5094323;28;20046;-60
2021/12/30 00:49:58;;;;;;;7.57;3.53;;;13.00;99.90;;;;;;5089195;28;20059;-61
2021/12/30 00:52:26;;;;;;;8.60;3.65;;;13.00;99.90;;;;;;5096241;28;20542;-61
2021/12/30 00:54:54;;;;;;;7.47;2.97;;;13.00;99.90;;;;;;5104061;28;20071;-61
2021/12/30 00:57:21;;;;;;;4.70;3.05;;;13.00;99.90;;;;;;5085340;28;20036;-62
2021/12/30 00:59:49;;;;;;;12.52;3.65;;;13.00;99.90;;;;;;5115083;28;20044;-61
2021/12/30 01:02:16;;;;;;;8.13;4.18;;;13.00;99.90;;;;;;5052234;28;20056;-61
2021/12/30 01:04:44;;;;;;;6.50;3.53;;;12.90;99.90;;;;;;5105530;28;20525;-61
2021/12/30 01:07:12;;;;;;;6.20;3.25;;;13.00;99.90;;;;;;5088764;28;20039;-62
2021/12/30 01:09:40;;;;;;;7.05;3.05;;;13.00;99.90;;;;;;5091623;28;20066;-62
2021/12/30 01:12:09;;;;;;;8.65;3.33;;;12.90;99.90;;;;;;5086034;28;20455;-62
2021/12/30 01:14:37;;;;;;;10.13;3.80;;;12.90;99.90;;;;;;5076107;28;20380;-62
2021/12/30 01:17:24;;;;;;;8.95;2.83;;;12.90;99.90;;;;;;5076664;28;20035;-61
2021/12/30 01:19:52;;;;;;;7.13;3.22;;;12.90;99.90;;;;;;5078353;28;20064;-62
2021/12/30 01:22:23;;;;;;;6.90;3.15;;;12.90;99.90;;;;;;5103466;28;20047;-61
2021/12/30 01:24:53;;;;;;;7.72;4.90;;;12.80;99.90;;;;;;5058098;28;20037;-62
2021/12/30 01:27:21;;;;;;;8.15;4.22;;;12.90;99.90;;;;;;5076479;28;20043;-61
2021/12/30 01:29:49;;;;;;;7.88;3.35;;;12.80;99.90;;;;;;5071478;28;20024;-61
2021/12/30 01:32:17;;;;;;;7.93;4.00;;;12.80;99.90;;;;;;5050986;28;20368;-61
2021/12/30 01:34:47;;;;;;;10.32;3.95;;;12.80;99.90;;;;;;5070949;28;20490;-61
2021/12/30 01:37:19;;;;;;;11.88;3.83;;;12.80;99.90;;;;;;5107641;28;20068;-61
2021/12/30 01:39:46;;;;;;;5.80;3.15;;;12.80;99.90;;;;;;5090132;27;20036;-61
2021/12/30 01:42:14;;;;;;;7.20;2.90;;;12.80;99.90;;;;;;5105380;28;20039;-62
2021/12/30 01:44:42;;;;;;;9.75;3.83;;;12.80;99.90;;;;;;5090770;28;20059;-61
2021/12/30 01:47:10;;;;;;;6.30;4.32;;;12.80;99.90;;;;;;5097866;28;20524;-61
2021/12/30 01:49:37;;;;;;;6.80;3.88;;;12.80;99.90;;;;;;5096763;28;20028;-61
2021/12/30 01:52:05;;;;;;;6.43;3.55;;;12.80;99.90;;;;;;5112168;28;20070;-61
2021/12/30 01:54:34;;;;;;;8.07;3.75;;;12.80;99.90;;;;;;5091809;28;20138;-62
2021/12/30 01:57:06;;;;;;;5.68;3.85;;;12.80;99.90;;;;;;5115328;28;20047;-61
2021/12/30 01:59:33;;;;;;;5.93;3.20;;;12.80;99.90;;;;;;5101541;28;20485;-61
2021/12/30 02:02:03;;;;;;;9.75;4.50;;;12.80;99.90;;;;;;5096956;28;20042;-61
2021/12/30 02:04:31;;;;;;;5.95;3.97;;;12.80;99.90;;;;;;5087921;28;20051;-62
2021/12/30 02:06:59;;;;;;;6.90;3.42;;;12.80;99.90;;;;;;5116905;27;20050;-61
2021/12/30 02:09:29;;;;;;;9.88;4.45;;;12.80;99.90;;;;;;5080116;28;20109;-61
2021/12/30 02:12:00;;;;;;;5.95;3.95;;;12.80;99.90;;;;;;5097340;28;20065;-62
2021/12/30 02:14:36;;;;;;;9.95;4.22;;;12.80;99.90;;;;;;5084315;28;20513;-62
2021/12/30 02:17:07;;;;;;;6.97;3.33;;;12.80;99.90;;;;;;5058824;28;20048;-61
2021/12/30 02:19:35;;;;;;;16.20;5.80;;;12.70;99.90;;;;;;5042477;28;20190;-62
2021/12/30 02:22:03;;;;;;;10.45;4.30;;;12.80;99.90;;;;;;5075839;28;20058;-63
2021/12/30 02:24:30;;;;;;;8.05;4.68;;;12.70;99.90;;;;;;5044162;28;20055;-61
2021/12/30 02:26:59;;;;;;;7.13;3.35;;;12.70;99.90;;;;;;5076845;28;20043;-62
2021/12/30 02:29:27;;;;;;;7.10;3.97;;;12.70;99.90;;;;;;5042265;28;20058;-61
2021/12/30 02:31:54;;;;;;;8.48;3.85;;;12.70;99.90;;;;;;5075157;28;20047;-62
2021/12/30 02:34:23;;;;;;;11.63;4.30;;;12.70;99.90;;;;;;5058791;28;20044;-62
2021/12/30 02:36:50;;;;;;;8.05;4.28;;;12.70;99.90;;;;;;5075192;28;20048;-62
2021/12/30 02:39:20;;;;;;;9.73;3.60;;;12.70;99.90;;;;;;5058854;28;20132;-63
2021/12/30 02:41:48;;;;;;;12.07;3.22;;;12.70;99.90;;;;;;5075763;28;20505;-62
2021/12/30 02:44:19;;;;;;;8.93;4.25;;;12.70;99.90;;;;;;5073474;28;20136;-61
2021/12/30 02:46:51;;;;;;;6.88;3.80;;;12.70;99.90;;;;;;5057219;28;20056;-61
2021/12/30 02:49:20;;;;;;;8.00;4.35;;;12.70;99.90;;;;;;5073884;28;20052;-62
2021/12/30 02:51:47;;;;;;;10.68;4.10;;;12.70;99.90;;;;;;5057215;28;20098;-61
2021/12/30 02:54:15;;;;;;;7.10;4.75;;;12.80;99.90;;;;;;5074702;28;20037;-61
2021/12/30 02:56:47;;;;;;;7.35;3.90;;;12.80;99.90;;;;;;5074976;28;20052;-61
2021/12/30 02:59:18;;;;;;;9.57;5.43;;;12.80;99.90;;;;;;5040351;28;20125;-61
2021/12/30 03:01:47;;;;;;;9.07;4.38;;;12.80;99.90;;;;;;5040554;28;20071;-61
2021/12/30 03:04:15;;;;;;;9.68;4.60;;;12.90;99.90;;;;;;5056804;28;20040;-61
2021/12/30 03:06:43;;;;;;;5.90;4.57;;;12.90;99.90;;;;;;5056868;28;20049;-61
2021/12/30 03:09:10;;;;;;;11.20;4.72;;;12.90;99.90;;;;;;5073498;28;20040;-61
2021/12/30 03:11:38;;;;;;;10.13;4.80;;;12.90;99.90;;;;;;5056937;28;20051;-61
2021/12/30 03:14:05;;;;;;;6.82;3.70;;;12.90;99.90;;;;;;5039880;28;20053;-61
2021/12/30 03:16:37;;;;;;;6.82;3.47;;;12.90;99.90;;;;;;5056266;28;20064;-61
2021/12/30 03:19:05;;;;;;;11.00;4.70;;;12.90;99.90;;;;;;5057109;28;20492;-61
2021/12/30 03:21:33;;;;;;;12.48;4.43;;;12.90;99.90;;;;;;5056587;28;20063;-61
2021/12/30 03:24:03;;;;;;;5.93;3.30;;;13.00;99.90;;;;;;5073235;28;20048;-61
2021/12/30 03:26:31;;;;;;;8.48;4.57;;;13.00;99.90;;;;;;5056480;28;20165;-61
2021/12/30 03:29:00;;;;;;;9.30;3.50;;;13.00;99.90;;;;;;5056302;28;20036;-61
2021/12/30 03:31:27;;;;;;;6.70;3.45;;;13.00;99.90;;;;;;5039823;28;20053;-61
2021/12/30 03:33:55;;;;;;;9.88;4.78;;;13.00;99.90;;;;;;5048453;28;20040;-61
2021/12/30 03:36:23;;;;;;;7.40;4.45;;;13.00;99.90;;;;;;5056547;28;20041;-61
2021/12/30 03:38:53;;;;;;;10.52;4.18;;;13.00;99.90;;;;;;5039907;28;20036;-61
2021/12/30 03:41:23;;;;;;;9.18;3.63;;;13.00;99.90;;;;;;5073167;28;20048;-61
2021/12/30 03:43:51;;;;;;;10.35;3.72;;;13.00;99.90;;;;;;5056093;28;20088;-61
2021/12/30 03:46:19;;;;;;;11.15;4.82;;;13.00;99.90;;;;;;5056665;28;20461;-61
2021/12/30 03:48:47;;;;;;;9.70;5.57;;;13.00;99.90;;;;;;5056358;28;20048;-61
2021/12/30 03:51:24;;;;;;;14.25;4.68;;;12.90;99.90;;;;;;5023405;28;20048;-61
2021/12/30 03:53:56;;;;;;;10.52;3.72;;;13.00;99.90;;;;;;5056291;28;20523;-61
2021/12/30 03:56:27;;;;;;;7.60;3.40;;;13.00;99.90;;;;;;5056090;28;20119;-62
2021/12/30 03:58:55;;;;;;;14.40;4.20;;;12.90;99.90;;;;;;5073615;28;20166;-61
2021/12/30 04:01:26;;;;;;;8.35;4.53;;;12.90;99.90;;;;;;5039916;28;20110;-61
2021/12/30 04:03:55;;;;;;;7.65;4.18;;;13.00;99.90;;;;;;5056121;28;20044;-61
2021/12/30 04:06:23;;;;;;;13.23;4.93;;;12.90;99.90;;;;;;5055948;28;20036;-61
2021/12/30 04:08:51;;;;;;;9.38;3.97;;;12.90;99.90;;;;;;5055986;28;20550;-61
2021/12/30 04:11:18;;;;;;;6.78;4.28;;;12.90;99.90;;;;;;5055682;28;20036;-61
2021/12/30 04:13:46;;;;;;;6.47;3.53;;;12.90;99.90;;;;;;5055883;28;20049;-61
2021/12/30 04:16:13;;;;;;;12.48;4.38;;;13.00;99.90;;;;;;5055967;28;20072;-61
2021/12/30 04:18:41;;;;;;;8.48;3.53;;;13.00;99.90;;;;;;5039262;28;20037;-61
2021/12/30 04:21:09;;;;;;;8.68;3.78;;;12.90;99.90;;;;;;5039274;28;20056;-61
2021/12/30 04:23:36;;;;;;;9.38;4.22;;;13.00;99.90;;;;;;5073355;28;20067;-61
2021/12/30 04:26:04;;;;;;;12.32;4.30;;;12.90;99.90;;;;;;5055623;28;20423;-61
2021/12/30 04:28:31;;;;;;;7.97;3.33;;;12.90;99.90;;;;;;5057607;28;20123;-61
2021/12/30 04:30:59;;;;;;;8.80;4.05;;;13.00;99.90;;;;;;5077678;28;20052;-61
2021/12/30 04:33:27;;;;;;;9.45;3.72;;;12.90;99.90;;;;;;5059664;28;20135;-61
2021/12/30 04:35:56;;;;;;;9.07;4.47;;;13.00;99.90;;;;;;5077338;28;20127;-61
2021/12/30 04:38:29;;;;;;;12.65;4.38;;;12.90;99.90;;;;;;5059825;28;20037;-61
2021/12/30 04:40:57;;;;;;;12.20;4.28;;;12.90;99.90;;;;;;5077417;28;20098;-61
2021/12/30 04:43:25;;;;;;;9.13;4.07;;;13.00;99.90;;;;;;5063251;28;20533;-61
2021/12/30 04:45:53;;;;;;;8.50;3.65;;;13.00;99.90;;;;;;5079990;28;20050;-61
2021/12/30 04:48:22;;;;;;;11.05;4.43;;;13.00;99.90;;;;;;5062851;28;20043;-61
2021/12/30 04:50:49;;;;;;;12.48;4.25;;;13.00;99.90;;;;;;5063111;28;20458;-61
2021/12/30 04:53:18;;;;;;;6.40;3.50;;;13.00;99.90;;;;;;5079082;28;20040;-61
2021/12/30 04:55:47;;;;;;;7.78;3.83;;;13.00;99.90;;;;;;5062797;28;20055;-61
2021/12/30 04:58:16;;;;;;;6.43;3.35;;;13.00;99.90;;;;;;5079380;28;20512;-61
2021/12/30 05:00:44;;;;;;;10.88;3.60;;;13.00;99.90;;;;;;5079382;28;20065;-61
2021/12/30 05:03:14;;;;;;;4.53;3.10;;;13.00;99.90;;;;;;5079479;28;20139;-62
2021/12/30 05:05:51;;;;;;;12.50;4.72;;;13.00;99.90;;;;;;5079162;28;20048;-61
2021/12/30 05:08:21;;;;;;;9.93;4.43;;;13.00;99.90;;;;;;5097235;28;20386;-61
2021/12/30 05:10:50;;;;;;;8.05;4.18;;;13.00;99.90;;;;;;5079469;28;20507;-61
2021/12/30 05:13:19;;;;;;;11.35;4.70;;;13.00;99.90;;;;;;5078938;28;20075;-61
2021/12/30 05:15:47;;;;;;;9.15;4.75;;;13.00;99.90;;;;;;5078914;28;20056;-61
2021/12/30 05:18:15;;;;;;;9.35;4.30;;;13.00;99.90;;;;;;5045186;28;20040;-61
2021/12/30 05:20:44;;;;;;;10.75;4.20;;;13.00;99.90;;;;;;5062506;28;20048;-61
2021/12/30 05:23:12;;;;;;;10.10;3.20;;;13.00;99.90;;;;;;5062223;28;20112;-62
2021/12/30 05:25:40;;;;;;;7.93;3.38;;;13.00;99.90;;;;;;5062167;28;20056;-61
2021/12/30 05:28:07;;;;;;;7.70;3.70;;;13.00;99.90;;;;;;5096810;28;20478;-61
2021/12/30 05:30:36;;;;;;;7.85;4.50;;;13.00;99.90;;;;;;5078613;28;20048;-61
2021/12/30 05:33:04;;;;;;;11.13;4.18;;;13.10;99.90;;;;;;5096395;28;20089;-61
2021/12/30 05:35:31;;;;;;;11.93;4.35;;;13.10;99.90;;;;;;5078763;28;20072;-61
2021/12/30 05:38:01;;;;;;;15.18;4.00;;;13.00;99.90;;;;;;5078525;28;20524;-61
2021/12/30 05:40:30;;;;;;;11.18;4.00;;;13.10;99.90;;;;;;5078589;28;20123;-61
2021/12/30 05:42:57;;;;;;;6.45;3.47;;;13.10;99.90;;;;;;5078678;28;20055;-62
2021/12/30 05:45:26;;;;;;;8.93;3.55;;;13.10;99.90;;;;;;5045419;28;20056;-62
2021/12/30 05:47:54;;;;;;;11.20;3.70;;;13.10;99.90;;;;;;5078498;28;20465;-61
2021/12/30 05:50:28;;;;;;;10.65;4.90;;;13.10;99.90;;;;;;5061801;28;20397;-61
2021/12/30 05:52:55;;;;;;;10.63;4.97;;;13.00;99.90;;;;;;5095021;28;20044;-61
2021/12/30 05:55:23;;;;;;;6.55;3.65;;;13.10;99.90;;;;;;5060658;28;20048;-61
2021/12/30 05:57:52;;;;;;;7.78;3.83;;;13.10;99.90;;;;;;5078135;28;20044;-61
2021/12/30 06:00:21;;;;;;;8.50;4.50;;;13.00;99.90;;;;;;5061373;28;20107;-61
2021/12/30 06:02:49;;;;;;;14.02;5.35;;;13.00;99.90;;;;;;5096163;28;20078;-61
2021/12/30 06:05:16;;;;;;;10.18;5.70;;;13.00;99.90;;;;;;5094956;28;20051;-61
2021/12/30 06:07:44;;;;;;;8.75;3.50;;;13.00;99.90;;;;;;5061597;28;20482;-61
2021/12/30 06:10:12;;;;;;;9.98;3.97;;;13.00;99.90;;;;;;5078177;28;20133;-61
2021/12/30 06:12:42;;;;;;;10.65;5.30;;;13.00;99.90;;;;;;5095704;28;20040;-62
2021/12/30 06:15:11;;;;;;;9.65;4.22;;;13.00;99.90;;;;;;5077942;28;20036;-61
2021/12/30 06:17:39;;;;;;;10.20;4.70;;;13.00;99.90;;;;;;5095714;28;20126;-61
2021/12/30 06:20:10;;;;;;;8.55;4.03;;;13.00;99.90;;;;;;5095745;28;20047;-61
2021/12/30 06:22:38;;;;;;;7.28;3.58;;;13.00;99.90;;;;;;5095723;28;20087;-61
2021/12/30 06:25:06;;;;;;;8.13;4.03;;;13.10;99.90;;;;;;5077596;28;20044;-60
2021/12/30 06:27:33;;;;;;;12.98;3.92;;;13.10;99.90;;;;;;5060895;28;20051;-61
2021/12/30 06:30:02;;;;;;;10.13;5.00;;;13.10;99.90;;;;;;5077921;28;20052;-60
2021/12/30 06:32:29;;;;;;;9.10;3.97;;;13.20;99.90;;;;;;5095399;28;20048;-60
2021/12/30 06:34:57;;;;;;;11.77;4.30;;;13.20;99.90;;;;;;5095182;28;20040;-60
2021/12/30 06:37:24;;;;;;;9.60;4.13;;;13.20;99.90;;;;;;5077776;28;20051;-61
2021/12/30 06:39:52;;;;;;;9.60;3.58;;;13.30;99.90;;;;;;5077158;28;20066;-60
2021/12/30 06:42:20;;;;;;;5.28;2.95;;;13.50;99.90;;;;;;5077306;28;20040;-61
2021/12/30 06:44:48;;;;;;;7.07;2.75;;;14.10;99.90;;;;;;5077408;28;20268;-60
2021/12/30 06:47:15;;;;;;;8.88;2.92;;;15.00;99.90;;;;;;5077360;28;20067;-61
2021/12/30 06:49:43;;;;;;;7.32;3.70;;;16.00;99.90;;;;;;5095225;28;20048;-61
2021/12/30 06:52:12;;;;;;;7.50;3.33;;;16.90;99.90;;;;;;5076532;28;20036;-61
2021/12/30 06:54:40;;;;;;;8.63;4.10;;;17.80;99.90;;;;;;5076973;28;20044;-61
2021/12/30 06:57:12;;;;;;;8.45;3.45;;;18.60;99.90;;;;;;5043895;28;20079;-61
2021/12/30 06:59:40;;;;;;;12.60;5.03;;;19.40;99.90;;;;;;5094804;28;20066;-61
2021/12/30 07:02:08;;;;;;;14.30;6.03;;;20.00;99.90;;;;;;5060490;28;20048;-61
2021/12/30 07:04:36;;;;;;;8.57;3.05;;;20.50;99.90;;;;;;5076920;28;20040;-61
2021/12/30 07:07:04;;;;;;;8.93;3.63;;;20.80;99.90;;;;;;5076816;28;20075;-61
2021/12/30 07:09:32;;;;;;;8.38;4.22;;;21.50;99.70;;;;;;5077381;28;20056;-62
2021/12/30 07:11:59;;;;;;;10.23;3.67;;;22.10;98.40;;;;;;5080132;28;20512;-61
2021/12/30 07:14:28;;;;;;;8.75;3.45;;;22.70;97.20;;;;;;5112776;28;20377;-62
2021/12/30 07:16:56;;;;;;;7.40;2.40;;;23.20;96.30;;;;;;5058831;28;20469;-61
2021/12/30 07:19:24;;;;;;;4.95;2.15;;;23.60;95.10;;;;;;5112496;28;20043;-61
2021/12/30 07:21:52;;;;;;;6.45;2.35;;;24.10;94.10;;;;;;5061840;28;20055;-61
2021/12/30 07:24:20;;;;;;;6.68;3.03;;;24.30;93.30;;;;;;5091745;28;20081;-61
2021/12/30 07:26:52;;;;;;;6.72;3.42;;;23.80;93.10;;;;;;5087845;28;20144;-61
2021/12/30 07:29:20;;;;;;;6.70;3.15;;;22.90;94.40;;;;;;5091357;28;20125;-61
2021/12/30 07:31:48;;;;;;;6.78;3.45;;;22.70;95.20;;;;;;5078059;28;20048;-61
2021/12/30 07:34:16;;;;;;;7.00;2.72;;;22.70;94.90;;;;;;5105813;28;20036;-62
2021/12/30 07:36:43;;;;;;;10.82;4.32;;;22.40;95.60;;;;;;5075925;28;20066;-62
2021/12/30 07:39:11;;;;;;;5.97;3.40;;;22.40;95.80;;;;;;5079275;28;20054;-62
2021/12/30 07:41:39;;;;;;;8.70;3.08;;;22.40;95.80;;;;;;5079757;28;20054;-61
2021/12/30 07:44:07;;;;;;;9.20;2.83;;;22.70;95.40;;;;;;5114515;28;20057;-61
2021/12/30 07:46:34;;;;;;;9.52;4.57;;;23.20;94.70;;;;;;5114191;28;20089;-61
2021/12/30 07:49:02;;;;;;;9.55;4.28;;;23.70;93.90;;;;;;5096164;28;20040;-61
2021/12/30 07:51:30;;;;;;;6.95;3.75;;;24.00;93.00;;;;;;5096506;28;20176;-61
2021/12/30 07:53:57;;;;;;;5.38;2.70;;;24.10;92.80;;;;;;5114380;28;20054;-61
2021/12/30 07:56:25;;;;;;;6.55;3.25;;;23.80;92.60;;;;;;5079682;28;20043;-61
2021/12/30 07:58:55;;;;;;;6.18;2.60;;;23.60;92.30;;;;;;5096409;28;20040;-61
2021/12/30 08:01:22;;;;;;;5.47;2.65;;;23.00;92.20;;;;;;5096092;28;20052;-61
2021/12/30 08:03:50;;;;;;;6.18;2.80;;;22.60;92.30;;;;;;5079032;28;20061;-61
2021/12/30 08:06:17;;;;;;;5.88;2.15;;;22.40;92.50;;;;;;5114210;28;20055;-61
2021/12/30 08:08:45;;;;;;;3.78;1.90;;;22.20;92.30;;;;;;5096318;28;20097;-61
2021/12/30 08:11:13;;;;;;;9.40;2.97;;;22.20;92.60;;;;;;5096266;28;20131;-61
2021/12/30 08:13:41;;;;;;;4.25;2.58;;;22.00;92.60;;;;;;5062682;28;20058;-61
2021/12/30 08:16:08;;;;;;;8.35;3.25;;;22.10;92.90;;;;;;5096174;28;20082;-61
2021/12/30 08:18:36;;;;;;;9.38;2.88;;;22.10;92.90;;;;;;5096167;28;20044;-61
2021/12/30 08:21:03;;;;;;;8.20;2.53;;;22.10;92.60;;;;;;5095787;28;20064;-61
2021/12/30 08:23:31;;;;;;;4.78;2.17;;;21.80;92.60;;;;;;5113869;28;20040;-61
2021/12/30 08:25:58;;;;;;;4.45;2.83;;;21.70;92.10;;;;;;5095621;28;20051;-60
2021/12/30 08:28:27;;;;;;;4.55;1.60;;;21.60;91.60;;;;;;5078790;28;20189;-60
2021/12/30 08:30:55;;;;;;;3.53;1.70;;;21.30;91.40;;;;;;5062434;28;20051;-60
2021/12/30 08:33:23;;;;;;;4.80;2.00;;;21.10;91.30;;;;;;5078792;28;20047;-60
2021/12/30 08:35:50;;;;;;;3.50;1.70;;;20.40;91.50;;;;;;5113615;28;20069;-60
2021/12/30 08:38:19;;;;;;;3.53;1.50;;;19.50;92.60;;;;;;5079032;28;20050;-60
2021/12/30 08:40:47;;;;;;;3.17;2.22;;;18.80;93.60;;;;;;5095920;28;20081;-60
2021/12/30 08:43:16;;;;;;;3.95;1.45;;;18.40;94.50;;;;;;5095696;28;20055;-60
2021/12/30 08:45:46;;;;;;;5.85;2.78;;;18.10;94.80;;;;;;5078932;28;20398;-61
2021/12/30 08:48:15;;;;;;;4.10;1.52;;;18.00;95.10;;;;;;5095844;28;20044;-62
2021/12/30 08:50:43;;;;;;;6.13;2.78;;;17.90;95.10;;;;;;5078979;28;20486;-61
2021/12/30 08:53:10;;;;;;;4.22;2.30;;;18.00;95.30;;;;;;5095689;28;20511;-61
2021/12/30 08:55:38;;;;;;;4.38;2.13;;;18.10;95.30;;;;;;5113576;28;20050;-62
2021/12/30 08:58:06;;;;;;;4.82;2.00;;;18.10;95.10;;;;;;5095596;28;20047;-62
2021/12/30 09:00:38;;;;;;;4.18;2.35;;;18.10;94.50;;;;;;5095160;28;20101;-62
2021/12/30 09:03:06;;;;;;;7.03;2.00;;;18.10;94.30;;;;;;5113842;28;20036;-62
2021/12/30 09:05:35;;;;;;;7.32;2.10;;;17.90;94.30;;;;;;5095557;28;20519;-62
2021/12/30 09:08:04;;;;;;;3.92;1.65;;;17.80;94.40;;;;;;5095286;28;20047;-62
2021/12/30 09:10:35;;;;;;;3.58;1.70;;;18.00;94.70;;;;;;5095555;28;20127;-63
2021/12/30 09:13:03;;;;;;;3.17;1.95;;;17.90;94.40;;;;;;5113410;28;20035;-62
2021/12/30 09:15:31;;;;;;;6.78;1.60;;;18.00;94.50;;;;;;5065213;28;20047;-63
2021/12/30 09:17:58;;;;;;;3.75;1.63;;;17.90;94.30;;;;;;5099598;28;20055;-62
2021/12/30 09:20:26;;;;;;;6.13;1.85;;;17.90;94.40;;;;;;5082450;28;20120;-62
2021/12/30 09:22:56;;;;;;;4.38;2.72;;;17.90;94.60;;;;;;5082648;28;20096;-60
2021/12/30 09:25:24;;;;;;;4.95;1.83;;;18.00;94.90;;;;;;5098872;28;20059;-61
2021/12/30 09:27:54;;;;;;;8.95;1.70;;;17.90;94.40;;;;;;5099227;28;20130;-60
2021/12/30 09:30:23;;;;;;;12.85;2.90;;;17.80;94.40;;;;;;5099325;28;20486;-61
2021/12/30 09:32:56;;;;;;;3.40;2.10;;;17.80;94.70;;;;;;5114832;28;20067;-62
2021/12/30 09:35:24;;;;;;;6.13;1.73;;;17.80;94.80;;;;;;5079039;28;20089;-61
2021/12/30 09:37:54;;;;;;;4.32;1.60;;;18.00;94.90;;;;;;5094977;28;20040;-63
2021/12/30 09:40:26;;;;;;;3.38;2.40;;;18.00;94.80;;;;;;5078942;28;20089;-61
2021/12/30 09:43:01;;;;;;;4.93;2.03;;;18.10;94.70;;;;;;5113663;28;20062;-62
2021/12/30 09:45:33;;;;;;;7.70;3.60;;;18.10;94.60;;;;;;5111085;28;20074;-61
2021/12/30 09:48:04;;;;;;;5.60;1.90;;;18.10;94.50;;;;;;5080057;28;20044;-62
2021/12/30 09:50:46;;;;;;;3.70;1.60;;;18.00;94.70;;;;;;5103647;28;20044;-61
2021/12/30 09:53:18;;;;;;;6.70;2.00;;;17.80;94.80;;;;;;5095180;28;20549;-61
2021/12/30 09:55:46;;;;;;;3.90;1.80;;;17.70;94.80;;;;;;5077440;28;20040;-61
2021/12/30 09:58:15;;;;;;;7.95;2.35;;;17.70;94.90;;;;;;5094392;28;20165;-62
2021/12/30 10:00:42;;;;;;;5.05;2.30;;;17.60;95.20;;;;;;5093662;28;20039;-61
2021/12/30 10:03:10;;;;;;;8.93;2.75;;;17.60;95.40;;;;;;5063609;28;20482;-61
2021/12/30 10:05:40;;;;;;;2.90;1.67;;;17.60;95.10;;;;;;5084788;28;20047;-63
2021/12/30 10:08:18;;;;;;;4.00;1.88;;;17.40;94.60;;;;;;5104571;28;20466;-61
2021/12/30 10:10:48;;;;;;;7.60;2.42;;;17.20;94.50;;;;;;5108562;28;20032;-61
2021/12/30 10:13:21;;;;;;;6.35;1.65;;;17.20;94.80;;;;;;5079363;28;20051;-62
2021/12/30 10:15:55;;;;;;;4.93;1.98;;;17.30;95.00;;;;;;5105177;28;20126;-61
2021/12/30 10:18:24;;;;;;;3.38;1.80;;;17.40;95.00;;;;;;5095299;28;20044;-61
2021/12/30 10:20:53;;;;;;;5.70;1.88;;;17.50;94.50;;;;;;5060691;28;20040;-62
2021/12/30 10:23:25;;;;;;;9.05;2.28;;;17.60;93.90;;;;;;5061284;28;20119;-61
2021/12/30 10:25:58;;;;;;;2.67;1.42;;;17.80;93.90;;;;;;5076752;28;20067;-61
2021/12/30 10:28:33;;;;;;;4.22;1.38;;;17.90;94.10;;;;;;5095253;28;20036;-61
2021/12/30 10:31:14;;;;;;;3.63;1.63;;;18.00;93.70;;;;;;5077698;28;20048;-60
2021/12/30 10:33:53;;;;;;;5.43;1.40;;;17.80;93.00;;;;;;5077606;28;20040;-60
2021/12/30 10:36:27;;;;;;;7.20;1.60;;;17.80;93.10;;;;;;5043964;28;20052;-60
2021/12/30 10:39:14;;;;;;;10.05;2.97;;;17.70;93.30;;;;;;5095410;28;20479;-60
2021/12/30 10:41:41;;;;;;;;;;;17.60;93.50;;;;;;5096031;28;20127;-60
2021/12/30 10:44:09;;;;;;;5.15;1.40;;;17.60;93.70;;;;;;5076306;28;19927;-60
2021/12/30 10:46:37;;;;;;;6.20;1.60;;;17.80;93.70;;;;;;5060010;28;20032;-60
2021/12/30 10:49:22;;;;;;;8.57;2.40;;;17.80;93.50;;;;;;5094799;28;20066;-61
2021/12/30 10:51:53;;;;;;;2.95;1.25;;;17.80;93.40;;;;;;5076506;28;20040;-61
2021/12/30 10:54:25;;;;;;;9.10;2.17;;;17.80;93.00;;;;;;5093720;28;20550;-61
2021/12/30 10:57:05;;;;;;;4.80;2.20;;;17.70;93.30;;;;;;5060299;28;20060;-60
2021/12/30 10:59:38;;;;;;;6.88;1.67;;;17.70;93.30;;;;;;5076300;28;20056;-61
2021/12/30 11:02:06;;;;;;;3.53;1.65;;;17.60;92.80;;;;;;5060523;28;20051;-61
2021/12/30 11:04:57;;;;;;;4.93;2.08;;;17.60;92.80;;;;;;5077004;28;20093;-61
2021/12/30 11:07:48;;;;;;;5.80;2.58;;;17.60;92.80;;;;;;5060091;28;20071;-61
2021/12/30 11:10:28;;;;;;;3.80;1.98;;;17.50;92.70;;;;;;5094664;28;20036;-61
2021/12/30 11:13:09;;;;;;;3.30;1.45;;;17.50;92.70;;;;;;5077016;28;20040;-61
2021/12/30 11:15:37;;;;;;;4.07;2.00;;;17.30;91.90;;;;;;5094455;28;20046;-61
2021/12/30 11:18:11;;;;;;;4.60;1.92;;;17.40;92.20;;;;;;5076847;28;20032;-61
2021/12/30 11:20:44;;;;;;;4.13;2.17;;;17.50;92.60;;;;;;5092846;28;20363;-61
2021/12/30 11:23:13;;;;;;;4.72;1.92;;;17.40;92.20;;;;;;5059540;28;20039;-62
2021/12/30 11:25:41;;;;;;;4.60;2.13;;;17.40;92.50;;;;;;5060085;28;20079;-61
2021/12/30 11:28:09;;;;;;;3.65;1.83;;;17.40;92.50;;;;;;5094532;28;20041;-61
2021/12/30 11:30:37;;;;;;;2.88;1.38;;;17.40;92.40;;;;;;5059592;28;20120;-61
2021/12/30 11:33:05;;;;;;;3.45;1.30;;;17.50;92.20;;;;;;5076207;28;20503;-61
2021/12/30 11:35:32;;;;;;;8.27;2.10;;;17.60;91.90;;;;;;5076400;28;20051;-61
2021/12/30 11:38:01;;;;;;;3.97;2.10;;;17.50;91.30;;;;;;5076031;28;20044;-61
2021/12/30 11:40:29;;;;;;;3.95;1.70;;;17.50;91.30;;;;;;5076383;28;20075;-61
2021/12/30 11:43:09;;;;;;;6.65;2.95;;;17.50;91.40;;;;;;5059465;28;20048;-61
2021/12/30 11:45:39;;;;;;;4.63;2.28;;;17.40;91.10;;;;;;5093981;28;20508;-61
2021/12/30 11:48:27;;;;;;;2.80;1.65;;;17.40;91.10;;;;;;5059540;28;20059;-61
2021/12/30 11:51:10;;;;;;;4.80;2.03;;;17.30;90.90;;;;;;5094473;28;20442;-61
2021/12/30 11:53:39;;;;;;;8.77;2.58;;;17.20;90.80;;;;;;5094018;28;20113;-61
2021/12/30 11:56:24;;;;;;;5.80;2.95;;;17.30;91.10;;;;;;5076110;28;20571;-62
2021/12/30 11:58:55;;;;;;;5.13;2.00;;;17.30;91.20;;;;;;5075536;28;20105;-62
2021/12/30 12:01:23;;;;;;;8.30;3.63;;;17.30;91.20;;;;;;5076200;28;20072;-62
2021/12/30 12:03:54;;;;;;;5.53;2.47;;;17.30;91.30;;;;;;5075985;28;20036;-62
2021/12/30 12:06:42;;;;;;;2.13;1.35;;;17.20;91.30;;;;;;5061414;28;20135;-63
2021/12/30 12:09:33;;;;;;;6.03;1.75;;;17.10;91.70;;;;;;5075592;28;20520;-62
2021/12/30 12:12:32;;;;;;;3.72;1.75;;;17.00;92.20;;;;;;5059597;28;20062;-61
2021/12/30 12:15:02;;;;;;;3.33;1.40;;;17.00;92.00;;;;;;5039151;28;20051;-62
2021/12/30 12:17:35;;;;;;;4.63;1.60;;;17.10;91.70;;;;;;5093693;28;20390;-62
2021/12/30 12:20:34;;;;;;;3.58;1.30;;;17.10;92.20;;;;;;5075464;28;20093;-62
2021/12/30 12:23:35;;;;;;;4.03;1.23;;;17.00;92.30;;;;;;5064232;28;20052;-63
2021/12/30 12:26:11;;;;;;;3.88;1.48;;;17.00;92.70;;;;;;5093553;28;20135;-61
2021/12/30 12:28:40;;;;;;;4.53;1.60;;;17.00;93.10;;;;;;5075794;28;20047;-62
2021/12/30 12:31:10;;;;;;;5.22;2.00;;;17.00;93.50;;;;;;5076056;28;20040;-62
2021/12/30 12:33:40;;;;;;;5.07;1.83;;;17.00;93.10;;;;;;5093420;28;20043;-62
2021/12/30 12:36:32;;;;;;;4.30;2.03;;;16.80;93.40;;;;;;5058923;28;20040;-62
2021/12/30 12:38:59;;;;;;;4.30;2.10;;;16.70;93.50;;;;;;5093514;28;20040;-62
2021/12/30 12:41:32;;;;;;;4.70;1.92;;;16.80;93.10;;;;;;5075559;28;20040;-63
2021/12/30 12:44:04;;;;;;;7.63;2.17;;;16.90;93.50;;;;;;5075175;28;20380;-62
2021/12/30 12:46:40;;;;;;;3.17;1.48;;;17.00;93.70;;;;;;5058966;28;20085;-62
2021/12/30 12:49:07;;;;;;;4.78;2.13;;;17.00;93.90;;;;;;5056399;28;20401;-62
2021/12/30 12:51:36;;;;;;;7.50;3.08;;;17.00;93.70;;;;;;5076823;28;20139;-62
2021/12/30 12:54:05;;;;;;;4.10;1.63;;;16.90;94.00;;;;;;5062644;28;20067;-62
2021/12/30 12:56:33;;;;;;;3.70;1.60;;;16.90;93.70;;;;;;5062695;28;20040;-63
2021/12/30 12:59:11;;;;;;;4.10;2.47;;;17.00;92.60;;;;;;5097209;28;20075;-61